Time;durP1;ratioP1;P1;durP2;ratioP2;P2;SDS_P1;SDS_P2;PMS_P1;PMS_P2;Temp;Humidity;BMP_temperature;BMP_pressure;BME280_temperature;BME280_humidity;BME280_pressure;Samples;Min_cycle;Max_cycle;Signal;HPM_P1;HPM_P2
2022/04/09 00:01:32;;;;;;;0.00;0.00;;;;;;;0.18;100.00;97316.50;4981664;28;20207;-56
2022/04/09 00:03:58;;;;;;;0.00;0.00;;;;;;;0.11;100.00;97315.31;4982047;28;20196;-56
2022/04/09 00:06:25;;;;;;;0.00;0.00;;;;;;;0.15;100.00;97314.16;4982378;28;20190;-56
2022/04/09 00:08:52;;;;;;;0.00;0.00;;;;;;;0.09;100.00;97320.56;4981823;28;20183;-56
2022/04/09 00:11:19;;;;;;;0.00;0.00;;;;;;;0.02;100.00;97324.53;4981832;28;20751;-56
2022/04/09 00:13:47;;;;;;;0.00;0.00;;;;;;;0.07;100.00;97342.94;4991854;28;20189;-56
2022/04/09 00:16:14;;;;;;;0.00;0.00;;;;;;;0.11;100.00;97351.25;4992600;28;20189;-56
2022/04/09 00:18:43;;;;;;;0.00;0.00;;;;;;;0.12;100.00;97358.81;4993747;28;20207;-55
2022/04/09 00:21:10;;;;;;;0.00;0.00;;;;;;;0.22;100.00;97374.34;4987548;28;20217;-56
2022/04/09 00:23:37;;;;;;;0.00;0.00;;;;;;;0.28;100.00;97370.50;4983364;28;20182;-56
2022/04/09 00:26:04;;;;;;;0.00;0.00;;;;;;;0.35;100.00;97381.13;4980993;28;20651;-56
2022/04/09 00:28:30;;;;;;;0.00;0.00;;;;;;;0.38;100.00;97393.72;4981241;28;20254;-57
2022/04/09 00:30:59;;;;;;;0.00;0.00;;;;;;;0.38;100.00;97409.13;4981330;28;20210;-57
2022/04/09 00:33:26;;;;;;;0.00;0.00;;;;;;;0.45;100.00;97415.44;4980760;28;20250;-57
2022/04/09 00:35:53;;;;;;;0.00;0.00;;;;;;;0.40;100.00;97441.44;4979270;28;20676;-57
2022/04/09 00:38:20;;;;;;;0.00;0.00;;;;;;;0.38;100.00;97450.19;4985196;28;20189;-56
2022/04/09 00:40:47;;;;;;;0.00;0.00;;;;;;;0.43;100.00;97464.31;4983835;28;20208;-56
2022/04/09 00:43:13;;;;;;;0.00;0.00;;;;;;;0.46;100.00;97472.72;4982778;28;20193;-56
2022/04/09 00:45:40;;;;;;;0.00;0.00;;;;;;;0.42;100.00;97475.50;4980483;28;20197;-56
2022/04/09 00:48:11;;;;;;;0.00;0.00;;;;;;;0.40;100.00;97484.28;4981668;28;20181;-56
2022/04/09 00:50:40;;;;;;;0.00;0.00;;;;;;;0.43;100.00;97502.81;4982577;28;20189;-57
2022/04/09 00:53:08;;;;;;;0.00;0.00;;;;;;;0.38;100.00;97504.13;4981574;28;20235;-56
2022/04/09 00:58:21;;;;;;;0.00;0.00;;;;;;;0.43;100.00;97528.50;4980680;28;20186;-57
2022/04/09 01:00:48;;;;;;;0.00;0.00;;;;;;;0.37;100.00;97534.09;4981115;28;20237;-57
2022/04/09 01:03:19;;;;;;;0.00;0.00;;;;;;;0.43;100.00;97545.66;4981050;28;20194;-57
2022/04/09 01:05:48;;;;;;;0.00;0.00;;;;;;;0.43;100.00;97543.09;4981501;28;20199;-57
2022/04/09 01:08:15;;;;;;;0.00;0.00;;;;;;;0.46;100.00;97552.31;5010080;23;20260;-49
2022/04/09 01:10:46;;;;;;;0.00;0.00;;;;;;;0.46;100.00;97555.72;5021651;28;20199;-50
2022/04/09 01:13:15;;;;;;;0.00;0.00;;;;;;;0.43;100.00;97564.44;5021941;28;20192;-48
2022/04/09 01:15:42;;;;;;;0.00;0.00;;;;;;;0.47;100.00;97562.47;5024455;28;20219;-50
2022/04/09 01:18:09;;;;;;;0.00;0.00;;;;;;;0.52;100.00;97564.69;5010053;28;20259;-48
2022/04/09 01:20:38;;;;;;;0.00;0.00;;;;;;;0.53;100.00;97574.03;5000736;28;20217;-48
2022/04/09 01:23:06;;;;;;;0.00;0.00;;;;;;;0.54;100.00;97573.91;4998601;28;20193;-49
2022/04/09 01:25:34;;;;;;;0.00;0.00;;;;;;;0.54;100.00;97585.94;5000729;28;20190;-48
2022/04/09 01:28:03;;;;;;;0.00;0.00;;;;;;;0.52;100.00;97592.94;4998681;28;20640;-48
2022/04/09 01:30:29;;;;;;;0.00;0.00;;;;;;;0.54;100.00;97598.78;4999985;28;20180;-49
2022/04/09 01:32:57;;;;;;;0.00;0.00;;;;;;;0.53;100.00;97621.06;5000420;28;20220;-50
2022/04/09 01:35:25;;;;;;;0.00;0.00;;;;;;;0.54;100.00;97625.25;4998058;28;20185;-49
2022/04/09 01:37:52;;;;;;;0.00;0.00;;;;;;;0.56;100.00;97632.88;4998222;28;20495;-49
2022/04/09 01:40:21;;;;;;;0.00;0.00;;;;;;;0.56;100.00;97640.56;4998814;28;20297;-48
2022/04/09 01:42:50;;;;;;;0.00;0.00;;;;;;;0.54;100.00;97650.13;5000406;28;20283;-49
2022/04/09 01:45:18;;;;;;;0.00;0.00;;;;;;;0.51;100.00;97666.59;4998831;28;20193;-50
2022/04/09 01:47:45;;;;;;;0.00;0.00;;;;;;;0.51;100.00;97681.19;4998618;28;20298;-50
2022/04/09 01:50:13;;;;;;;0.00;0.00;;;;;;;0.43;100.00;97689.44;5002292;28;20193;-50
2022/04/09 01:52:40;;;;;;;0.00;0.00;;;;;;;0.38;100.00;97694.88;5006422;28;20529;-49
2022/04/09 01:55:08;;;;;;;0.00;0.00;;;;;;;0.39;100.00;97711.94;4997244;28;20275;-48
2022/04/09 01:57:39;;;;;;;0.00;0.00;;;;;;;0.38;100.00;97720.56;4995538;28;20210;-49
2022/04/09 02:00:11;;;;;;;0.00;0.00;;;;;;;0.36;100.00;97735.25;4989589;28;20568;-49
2022/04/09 02:02:44;;;;;;;0.00;0.00;;;;;;;0.32;100.00;97738.97;4990031;28;20237;-48
2022/04/09 02:05:12;;;;;;;0.00;0.00;;;;;;;0.32;100.00;97749.22;4990875;28;20193;-50
2022/04/09 02:07:42;;;;;;;0.00;0.00;;;;;;;0.38;100.00;97751.38;4989956;28;20219;-49
2022/04/09 02:10:11;;;;;;;0.00;0.00;;;;;;;0.39;100.00;97752.22;4989615;28;20260;-51
2022/04/09 02:12:43;;;;;;;0.00;0.00;;;;;;;0.43;100.00;97769.84;4990066;28;20193;-49
2022/04/09 02:15:12;;;;;;;0.00;0.00;;;;;;;0.46;100.00;97776.53;4989597;28;20192;-48
2022/04/09 02:17:40;;;;;;;0.00;0.00;;;;;;;0.46;100.00;97781.66;4989865;28;20300;-50
2022/04/09 02:20:09;;;;;;;0.00;0.00;;;;;;;0.48;100.00;97782.38;4990872;28;20208;-49
2022/04/09 02:22:39;;;;;;;0.00;0.00;;;;;;;0.50;100.00;97789.94;4989798;28;20206;-48
2022/04/09 02:25:08;;;;;;;0.00;0.00;;;;;;;0.52;100.00;97791.50;4989379;28;20195;-49
2022/04/09 02:27:35;;;;;;;0.00;0.00;;;;;;;0.49;100.00;97804.56;4989828;28;20209;-49
2022/04/09 02:30:07;;;;;;;0.00;0.00;;;;;;;0.47;100.00;97820.97;4989393;28;20567;-47
2022/04/09 02:32:43;;;;;;;0.00;0.00;;;;;;;0.47;100.00;97818.41;4989813;28;20201;-48
2022/04/09 02:35:11;;;;;;;0.00;0.00;;;;;;;0.52;100.00;97837.72;4989484;28;20204;-48
2022/04/09 02:37:40;;;;;;;0.00;0.00;;;;;;;0.46;100.00;97830.44;4989599;28;20740;-51
2022/04/09 02:40:09;;;;;;;0.00;0.00;;;;;;;0.46;100.00;97842.44;4989323;28;20222;-48
2022/04/09 02:42:37;;;;;;;0.00;0.00;;;;;;;0.46;100.00;97838.16;4973758;28;20203;-48
2022/04/09 02:45:07;;;;;;;0.00;0.00;;;;;;;0.47;100.00;97839.78;4989140;28;20255;-49
2022/04/09 02:47:35;;;;;;;0.00;0.00;;;;;;;0.48;100.00;97841.44;4989559;28;20217;-49
2022/04/09 02:50:05;;;;;;;0.00;0.00;;;;;;;0.55;100.00;97852.88;4990410;28;20221;-48
2022/04/09 02:52:34;;;;;;;0.00;0.00;;;;;;;0.61;100.00;97856.78;4993174;28;20284;-48
2022/04/09 02:55:03;;;;;;;0.00;0.00;;;;;;;0.63;100.00;97862.66;4992760;28;20602;-50
2022/04/09 02:57:32;;;;;;;0.00;0.00;;;;;;;0.67;100.00;97868.38;5004760;28;20580;-48
2022/04/09 02:59:59;;;;;;;0.00;0.00;;;;;;;0.77;100.00;97884.78;5011890;28;20295;-49
2022/04/09 03:02:28;;;;;;;0.00;0.00;;;;;;;0.66;100.00;97893.25;5012446;28;20284;-48
2022/04/09 03:04:56;;;;;;;0.00;0.00;;;;;;;0.61;100.00;97895.31;5012007;28;20193;-50
2022/04/09 03:07:23;;;;;;;0.00;0.00;;;;;;;0.65;100.00;97898.47;5013425;28;20220;-50
2022/04/09 03:09:50;;;;;;;0.00;0.00;;;;;;;0.66;100.00;97908.66;5013385;28;20235;-48
2022/04/09 03:12:17;;;;;;;0.00;0.00;;;;;;;0.70;100.00;97917.81;5004472;28;20218;-50
2022/04/09 03:14:45;;;;;;;0.00;0.00;;;;;;;0.74;100.00;97920.97;5012770;28;20207;-48
2022/04/09 03:17:13;;;;;;;0.00;0.00;;;;;;;0.76;100.00;97936.28;5011972;28;20184;-48
2022/04/09 03:19:42;;;;;;;0.00;0.00;;;;;;;0.82;100.00;97935.88;5013182;28;20713;-49
2022/04/09 03:22:11;;;;;;;0.00;0.00;;;;;;;0.85;100.00;97943.38;5012367;28;20200;-49
2022/04/09 03:24:41;;;;;;;0.00;0.00;;;;;;;0.86;100.00;97943.25;5012948;28;20183;-48
2022/04/09 03:27:10;;;;;;;0.00;0.00;;;;;;;0.90;100.00;97961.03;5011803;28;20199;-49
2022/04/09 03:29:39;;;;;;;0.00;0.00;;;;;;;0.94;100.00;97971.00;5009289;28;20255;-49
2022/04/09 03:32:07;;;;;;;0.00;0.00;;;;;;;0.97;100.00;97970.78;5011697;28;20288;-48
2022/04/09 03:34:40;;;;;;;0.00;0.00;;;;;;;0.98;100.00;97975.00;5011169;28;20216;-48
2022/04/09 03:37:09;;;;;;;0.00;0.00;;;;;;;0.97;100.00;97977.66;5011790;28;20238;-48
2022/04/09 03:39:38;;;;;;;0.00;0.00;;;;;;;0.98;100.00;97980.13;5010611;28;20197;-49
2022/04/09 03:42:05;;;;;;;0.00;0.00;;;;;;;1.02;100.00;97986.72;5013905;28;20185;-49
2022/04/09 03:44:33;;;;;;;0.00;0.00;;;;;;;1.02;100.00;97994.41;5027263;28;20194;-49
2022/04/09 03:47:00;;;;;;;0.00;0.00;;;;;;;1.00;100.00;97996.28;5008452;28;20663;-48
2022/04/09 03:49:30;;;;;;;0.00;0.00;;;;;;;1.07;100.00;98004.38;5009759;28;20697;-48
2022/04/09 03:51:58;;;;;;;0.00;0.00;;;;;;;1.05;100.00;98011.38;5008043;28;20194;-48
2022/04/09 03:54:27;;;;;;;0.00;0.00;;;;;;;1.00;100.00;98010.84;5018929;28;20189;-49
2022/04/09 03:56:56;;;;;;;0.00;0.00;;;;;;;1.05;100.00;98019.06;5011466;28;20194;-50
2022/04/09 03:59:30;;;;;;;0.00;0.00;;;;;;;1.07;100.00;98018.97;5011534;28;20213;-49
2022/04/09 04:01:57;;;;;;;0.00;0.00;;;;;;;1.12;100.00;98029.75;5010266;28;20240;-48
2022/04/09 04:04:24;;;;;;;0.00;0.00;;;;;;;1.10;100.00;98026.47;5010983;28;20189;-48
2022/04/09 04:06:53;;;;;;;0.00;0.00;;;;;;;1.09;100.00;98033.34;5011198;28;20199;-49
2022/04/09 04:09:20;;;;;;;0.00;0.00;;;;;;;1.10;100.00;98037.56;5011064;28;20307;-48
2022/04/09 04:11:54;;;;;;;0.00;0.00;;;;;;;1.13;100.00;98041.66;5011245;28;20207;-49
2022/04/09 04:14:23;;;;;;;0.00;0.00;;;;;;;1.15;100.00;98050.94;5010722;28;20775;-50
2022/04/09 04:16:51;;;;;;;0.00;0.00;;;;;;;1.15;100.00;98060.38;5011101;28;20283;-50
2022/04/09 04:19:18;;;;;;;0.00;0.00;;;;;;;1.20;100.00;98057.50;5012272;28;20213;-48
2022/04/09 04:21:48;;;;;;;0.00;0.00;;;;;;;1.16;100.00;98064.59;5010847;28;20716;-48
2022/04/09 04:24:15;;;;;;;0.00;0.00;;;;;;;1.17;100.00;98072.22;5010736;28;20193;-49
2022/04/09 04:26:43;;;;;;;0.00;0.00;;;;;;;1.23;100.00;98077.88;5010881;28;20203;-49
2022/04/09 04:29:18;;;;;;;0.00;0.00;;;;;;;1.21;100.00;98077.16;5010946;28;20299;-48
2022/04/09 04:31:45;;;;;;;0.00;0.00;;;;;;;1.27;100.00;98079.31;5010546;28;20255;-49
2022/04/09 04:34:12;;;;;;;0.00;0.00;;;;;;;1.23;100.00;98076.09;5010385;28;20257;-50
2022/04/09 04:36:42;;;;;;;0.00;0.00;;;;;;;1.27;100.00;98081.88;5008837;28;20770;-49
2022/04/09 04:39:12;;;;;;;0.00;0.00;;;;;;;1.28;100.00;98098.94;5018656;28;20248;-49
2022/04/09 04:41:40;;;;;;;0.00;0.00;;;;;;;1.27;100.00;98098.09;5008438;28;20223;-49
2022/04/09 04:44:08;;;;;;;0.00;0.00;;;;;;;1.23;100.00;98106.16;5018164;28;20191;-50
2022/04/09 04:46:42;;;;;;;0.00;0.00;;;;;;;1.26;100.00;98122.19;5009333;28;20665;-49
2022/04/09 04:49:14;;;;;;;0.00;0.00;;;;;;;1.26;100.00;98124.75;5010682;28;20217;-48
2022/04/09 04:51:41;;;;;;;0.00;0.00;;;;;;;1.28;100.00;98127.22;5010282;28;20192;-50
2022/04/09 04:54:11;;;;;;;0.00;0.00;;;;;;;1.31;100.00;98145.03;5010033;28;20188;-50
2022/04/09 04:56:39;;;;;;;0.00;0.00;;;;;;;1.29;100.00;98141.72;5010354;28;20324;-48
2022/04/09 04:59:07;;;;;;;0.00;0.00;;;;;;;1.30;100.00;98148.53;5010309;28;20212;-49
2022/04/09 05:01:37;;;;;;;0.00;0.00;;;;;;;1.32;100.00;98156.94;5009993;28;20224;-48
2022/04/09 05:04:08;;;;;;;0.00;0.00;;;;;;;1.34;100.00;98160.25;5009984;28;20188;-49
2022/04/09 05:06:45;;;;;;;0.00;0.00;;;;;;;1.34;100.00;98167.97;5006600;28;20288;-48
2022/04/09 05:09:14;;;;;;;0.00;0.00;;;;;;;1.30;100.00;98182.75;5017792;28;20220;-49
2022/04/09 05:11:50;;;;;;;0.00;0.00;;;;;;;1.28;100.00;98188.94;5003260;28;20208;-49
2022/04/09 05:14:20;;;;;;;0.00;0.00;;;;;;;1.30;100.00;98190.47;5014727;28;20189;-48
2022/04/09 05:16:54;;;;;;;0.00;0.00;;;;;;;1.35;100.00;98194.47;5009934;28;20192;-48
2022/04/09 05:19:22;;;;;;;0.00;0.00;;;;;;;1.31;100.00;98199.03;5009850;28;20219;-48
2022/04/09 05:21:56;;;;;;;0.00;0.00;;;;;;;1.33;100.00;98200.56;5009751;28;20224;-49
2022/04/09 05:24:25;;;;;;;0.00;0.00;;;;;;;1.36;100.00;98206.41;5009654;28;20188;-51
2022/04/09 05:26:52;;;;;;;0.00;0.00;;;;;;;1.30;100.00;98205.91;5007871;28;20198;-49
2022/04/09 05:29:23;;;;;;;0.00;0.00;;;;;;;1.35;100.00;98208.19;5007350;28;20291;-48
2022/04/09 05:31:51;;;;;;;0.00;0.00;;;;;;;1.37;100.00;98216.63;5009609;28;20195;-49
2022/04/09 05:34:22;;;;;;;0.00;0.00;;;;;;;1.37;100.00;98215.78;5009331;28;20199;-49
2022/04/09 05:36:50;;;;;;;0.00;0.00;;;;;;;1.41;100.00;98225.78;5009825;28;20199;-50
2022/04/09 05:39:18;;;;;;;0.00;0.00;;;;;;;1.44;100.00;98228.13;5009633;28;20212;-49
2022/04/09 05:41:48;;;;;;;0.00;0.00;;;;;;;1.46;100.00;98233.16;5009376;28;20723;-49
2022/04/09 05:44:15;;;;;;;0.00;0.00;;;;;;;1.50;100.00;98239.75;5009386;28;20195;-49
2022/04/09 05:46:43;;;;;;;0.00;0.00;;;;;;;1.47;100.00;98238.22;5009622;28;20204;-49
2022/04/09 05:49:10;;;;;;;0.00;0.00;;;;;;;1.50;100.00;98244.91;5009659;28;20225;-48
2022/04/09 05:51:42;;;;;;;0.00;0.00;;;;;;;1.50;100.00;98247.47;5009950;28;20254;-51
2022/04/09 05:54:10;;;;;;;0.00;0.00;;;;;;;1.51;100.00;98251.69;5009176;28;20207;-48
2022/04/09 05:56:40;;;;;;;0.00;0.00;;;;;;;1.54;100.00;98248.91;5009538;28;20192;-48
2022/04/09 05:59:07;;;;;;;0.00;0.00;;;;;;;1.55;100.00;98260.03;5009428;28;20201;-49
2022/04/09 06:01:34;;;;;;;0.00;0.00;;;;;;;1.61;100.00;98265.59;5009248;28;20530;-50
2022/04/09 06:04:02;;;;;;;0.00;0.00;;;;;;;1.65;100.00;98268.75;5009247;28;20185;-48
2022/04/09 06:06:29;;;;;;;0.00;0.00;;;;;;;1.62;100.00;98272.38;5010841;28;20192;-49
2022/04/09 06:09:01;;;;;;;0.00;0.00;;;;;;;1.65;100.00;98273.91;5009331;28;20278;-49
2022/04/09 06:11:54;;;;;;;0.00;0.00;;;;;;;1.62;100.00;98286.97;5009321;28;20228;-52
2022/04/09 06:14:26;;;;;;;0.00;0.00;;;;;;;1.60;100.00;98284.53;5009087;28;20247;-50
2022/04/09 06:16:58;;;;;;;0.00;0.00;;;;;;;1.65;100.00;98288.53;5009570;28;20619;-48
2022/04/09 06:19:25;;;;;;;0.00;0.00;;;;;;;1.66;100.00;98291.00;5009391;28;20214;-49
2022/04/09 06:21:52;;;;;;;0.00;0.00;;;;;;;1.68;100.00;98296.84;5009117;28;20616;-48
2022/04/09 06:24:22;;;;;;;0.00;0.00;;;;;;;1.71;100.00;98295.84;5009083;28;20192;-49
2022/04/09 06:26:50;;;;;;;0.00;0.00;;;;;;;1.70;100.00;98305.31;5014382;28;20189;-48
2022/04/09 06:29:17;;;;;;;0.00;0.00;;;;;;;1.70;100.00;98307.06;5013051;28;20213;-49
2022/04/09 06:31:47;;;;;;;0.00;0.00;;;;;;;1.70;100.00;98312.22;5012916;28;20197;-49
2022/04/09 06:34:15;;;;;;;0.00;0.00;;;;;;;1.75;100.00;98317.88;5012788;28;20730;-49
2022/04/09 06:36:42;;;;;;;0.00;0.00;;;;;;;1.81;100.00;98317.47;5012819;28;20287;-49
2022/04/09 06:39:10;;;;;;;0.00;0.00;;;;;;;1.85;100.00;98324.06;5013108;28;20216;-50
2022/04/09 06:41:39;;;;;;;0.00;0.00;;;;;;;1.85;100.00;98329.19;5012676;28;20220;-48
2022/04/09 06:44:11;;;;;;;0.00;0.00;;;;;;;1.89;100.00;98322.94;5012421;28;20224;-51
2022/04/09 06:47:08;;;;;;;0.00;0.00;;;;;;;1.97;100.00;98324.16;5012626;28;20214;-50
2022/04/09 06:49:39;;;;;;;0.00;0.00;;;;;;;2.05;100.00;98322.69;5012503;28;20229;-50
2022/04/09 06:52:10;;;;;;;0.00;0.00;;;;;;;2.11;100.00;98330.94;5012783;28;20227;-49
2022/04/09 06:54:58;;;;;;;0.00;0.00;;;;;;;2.25;100.00;98337.72;5012112;28;20670;-49
2022/04/09 06:57:29;;;;;;;0.00;0.00;;;;;;;2.42;100.00;98329.66;5012421;28;20200;-50
2022/04/09 06:59:57;;;;;;;0.00;0.00;;;;;;;2.54;100.00;98334.88;5012453;28;20687;-48
2022/04/09 07:02:24;;;;;;;0.00;0.00;;;;;;;2.60;100.00;98339.59;5012459;28;20212;-49
2022/04/09 07:04:50;;;;;;;0.00;0.00;;;;;;;2.71;100.00;98339.69;5013320;28;20280;-49
2022/04/09 07:07:20;;;;;;;0.00;0.00;;;;;;;2.81;100.00;98337.25;5013756;28;20192;-49
2022/04/09 07:09:47;;;;;;;0.00;0.00;;;;;;;2.82;100.00;98348.41;5013274;28;20251;-49
2022/04/09 07:12:14;;;;;;;0.00;0.00;;;;;;;3.04;100.00;98343.38;5005147;28;20333;-48
2022/04/09 07:14:42;;;;;;;0.00;0.00;;;;;;;2.96;100.00;98343.09;5011419;28;20947;-49
2022/04/09 07:17:10;;;;;;;0.00;0.00;;;;;;;2.91;100.00;98345.19;5013139;28;20274;-50
2022/04/09 07:19:38;;;;;;;0.00;0.00;;;;;;;3.09;99.94;98350.78;5012878;28;20200;-50
2022/04/09 07:22:05;;;;;;;0.00;0.00;;;;;;;3.12;100.00;98353.13;5013086;28;20259;-48
2022/04/09 07:24:31;;;;;;;0.00;0.00;;;;;;;3.17;100.00;98363.13;5012848;28;20260;-49
2022/04/09 07:26:58;;;;;;;0.00;0.00;;;;;;;3.14;98.71;98360.78;5013255;28;20200;-50
2022/04/09 07:29:25;;;;;;;0.00;0.00;;;;;;;3.26;98.23;98357.28;5013206;28;20209;-49
2022/04/09 07:31:53;;;;;;;0.00;0.00;;;;;;;3.29;98.83;98364.81;5013017;28;20180;-49
2022/04/09 07:34:20;;;;;;;0.00;0.00;;;;;;;3.40;99.56;98364.03;5012775;28;20187;-49
2022/04/09 07:36:47;;;;;;;0.00;0.00;;;;;;;3.50;99.82;98369.34;5012726;28;20185;-49
2022/04/09 07:39:14;;;;;;;0.00;0.00;;;;;;;3.63;98.09;98369.28;5013335;28;20201;-49
2022/04/09 07:41:41;;;;;;;0.00;0.00;;;;;;;3.54;96.46;98368.19;5012714;28;20216;-50
2022/04/09 07:44:08;;;;;;;0.00;0.00;;;;;;;3.70;96.34;98367.91;5012723;28;20181;-49
2022/04/09 07:46:35;;;;;;;0.00;0.00;;;;;;;3.85;95.57;98378.84;5012917;28;20195;-49
2022/04/09 07:49:03;;;;;;;0.00;0.00;;;;;;;4.01;96.89;98372.53;5012969;28;20564;-49
2022/04/09 07:51:30;;;;;;;0.00;0.00;;;;;;;4.12;93.44;98375.13;5012542;28;20173;-49
2022/04/09 07:53:57;;;;;;;0.00;0.00;;;;;;;4.17;92.59;98373.03;5012547;28;20189;-49
2022/04/09 07:56:23;;;;;;;0.00;0.00;;;;;;;4.33;91.32;98379.59;5012826;28;20196;-49
2022/04/09 07:58:50;;;;;;;0.00;0.00;;;;;;;4.32;90.73;98385.69;5012787;28;20204;-51
2022/04/09 08:01:17;;;;;;;0.00;0.00;;;;;;;4.43;90.53;98391.69;5012307;28;20692;-48
2022/04/09 08:03:44;;;;;;;0.00;0.00;;;;;;;4.62;90.80;98389.47;5012643;28;20212;-50
2022/04/09 08:06:14;;;;;;;0.00;0.00;;;;;;;4.82;90.61;98391.31;5012054;28;20219;-51
2022/04/09 08:08:41;;;;;;;0.00;0.00;;;;;;;4.95;89.36;98382.59;5012412;28;20712;-50
2022/04/09 08:11:09;;;;;;;0.00;0.00;;;;;;;5.16;84.54;98388.66;5012286;28;20193;-51
2022/04/09 08:13:36;;;;;;;0.00;0.00;;;;;;;4.99;86.23;98394.34;5012604;28;20208;-48
2022/04/09 08:16:03;;;;;;;0.00;0.00;;;;;;;5.11;85.82;98397.72;5011985;28;20703;-48
2022/04/09 08:18:30;;;;;;;0.00;0.00;;;;;;;5.23;85.98;98395.94;5012250;28;20224;-49
2022/04/09 08:20:56;;;;;;;0.00;0.00;;;;;;;5.40;84.77;98403.16;5011866;28;20190;-48
2022/04/09 08:23:24;;;;;;;0.00;0.00;;;;;;;5.34;84.21;98400.25;5012303;28;20215;-52
2022/04/09 08:25:51;;;;;;;0.00;0.00;;;;;;;5.12;83.93;98402.78;5010187;28;20199;-49
2022/04/09 08:28:18;;;;;;;0.00;0.00;;;;;;;4.77;87.31;98398.63;5009394;28;20293;-49
2022/04/09 08:30:44;;;;;;;0.00;0.00;;;;;;;4.89;86.42;98396.81;5010990;28;20188;-49
2022/04/09 08:33:13;;;;;;;0.00;0.00;;;;;;;4.79;86.45;98408.81;5012176;28;20185;-49
2022/04/09 08:35:41;;;;;;;0.00;0.00;;;;;;;4.23;89.87;98413.91;5011638;28;20199;-48
2022/04/09 08:38:08;;;;;;;0.00;0.00;;;;;;;4.18;89.75;98410.84;5011943;28;20208;-51
2022/04/09 08:40:37;;;;;;;0.00;0.00;;;;;;;4.12;90.60;98414.69;5011991;28;20196;-49
2022/04/09 08:43:05;;;;;;;0.00;0.00;;;;;;;4.18;91.56;98408.25;5011998;28;20219;-49
2022/04/09 08:45:36;;;;;;;0.00;0.00;;;;;;;4.35;91.95;98413.88;5011470;28;20203;-48
2022/04/09 08:48:04;;;;;;;0.03;0.03;;;;;;;4.60;91.66;98412.00;5010965;28;20208;-49
2022/04/09 08:50:31;;;;;;;0.00;0.00;;;;;;;4.99;90.54;98412.47;5011662;28;20726;-48
2022/04/09 08:53:02;;;;;;;0.00;0.00;;;;;;;5.25;86.41;98412.16;5012004;28;20185;-51
2022/04/09 08:55:29;;;;;;;0.00;0.00;;;;;;;5.31;87.63;98422.00;5011426;28;20661;-48
2022/04/09 08:57:57;;;;;;;0.00;0.00;;;;;;;5.29;86.61;98423.91;5011593;28;20568;-48
2022/04/09 09:00:24;;;;;;;0.00;0.00;;;;;;;5.20;85.89;98422.06;5011314;28;20189;-48
2022/04/09 09:02:53;;;;;;;0.00;0.00;;;;;;;5.21;85.22;98431.47;5010426;28;20296;-49
2022/04/09 09:05:34;;;;;;;0.00;0.00;;;;;;;5.19;84.99;98426.41;5011364;28;20651;-48
2022/04/09 09:08:02;;;;;;;0.00;0.00;;;;;;;5.20;84.28;98435.00;5011349;28;20230;-49
2022/04/09 09:10:31;;;;;;;0.00;0.00;;;;;;;5.52;85.43;98439.34;5011252;28;20247;-48
2022/04/09 09:13:01;;;;;;;0.00;0.00;;;;;;;5.75;84.97;98440.91;5007595;28;20181;-49
2022/04/09 09:15:29;;;;;;;0.00;0.00;;;;;;;6.11;85.50;98434.66;5000426;28;20250;-49
2022/04/09 09:17:56;;;;;;;0.00;0.00;;;;;;;6.30;82.95;98446.91;5005283;28;20220;-50
2022/04/09 09:20:24;;;;;;;0.00;0.00;;;;;;;6.61;80.55;98441.72;5000541;28;20630;-49
2022/04/09 09:22:52;;;;;;;0.00;0.00;;;;;;;6.63;81.33;98445.81;4998328;28;20719;-50
2022/04/09 09:25:19;;;;;;;0.00;0.00;;;;;;;6.28;80.46;98451.38;4998050;28;20272;-52
2022/04/09 09:27:56;;;;;;;0.00;0.00;;;;;;;6.26;81.23;98456.72;5001569;28;20271;-51
2022/04/09 09:30:24;;;;;;;0.00;0.00;;;;;;;6.31;82.98;98464.09;5008655;28;20709;-53
2022/04/09 09:33:07;;;;;;;0.00;0.00;;;;;;;5.86;84.86;98458.16;5010931;28;20185;-51
2022/04/09 09:35:59;;;;;;;0.00;0.00;;;;;;;5.91;82.72;98466.38;5010116;28;20183;-49
2022/04/09 09:38:28;;;;;;;0.00;0.00;;;;;;;5.90;84.02;98474.28;5000988;28;20244;-51
2022/04/09 09:40:56;;;;;;;0.00;0.00;;;;;;;5.70;80.30;98474.13;5010560;28;20197;-52
2022/04/09 09:43:24;;;;;;;0.10;0.10;;;;;;;5.72;81.37;98476.63;5010472;28;20223;-50
2022/04/09 09:45:55;;;;;;;0.00;0.00;;;;;;;5.90;81.83;98474.28;5010358;28;20198;-51
2022/04/09 09:48:24;;;;;;;0.00;0.00;;;;;;;6.24;80.16;98470.72;5010401;28;20208;-51
2022/04/09 09:50:52;;;;;;;0.00;0.00;;;;;;;6.64;79.72;98485.56;5010227;28;20180;-52
2022/04/09 09:53:27;;;;;;;0.00;0.00;;;;;;;6.85;78.49;98485.50;5010538;28;20190;-53
2022/04/09 09:55:55;;;;;;;0.00;0.00;;;;;;;6.74;78.49;98480.41;5010328;28;20180;-49
2022/04/09 09:58:23;;;;;;;0.00;0.00;;;;;;;6.75;79.17;98482.91;5008616;28;20855;-49
2022/04/09 10:00:50;;;;;;;0.00;0.00;;;;;;;7.18;77.20;98493.97;4994574;28;20716;-49
2022/04/09 10:03:20;;;;;;;0.00;0.00;;;;;;;7.05;74.83;98490.78;4994773;28;20234;-49
2022/04/09 10:05:49;;;;;;;0.00;0.00;;;;;;;6.87;75.91;98494.00;4993076;28;20201;-49
2022/04/09 10:08:16;;;;;;;0.00;0.00;;;;;;;6.84;76.14;98490.84;4994340;28;20227;-48
2022/04/09 10:10:48;;;;;;;0.00;0.00;;;;;;;7.10;77.24;98504.19;4994292;28;20191;-48
2022/04/09 10:13:19;;;;;;;0.00;0.00;;;;;;;6.81;76.14;98499.69;4994813;28;20190;-50
2022/04/09 10:15:50;;;;;;;0.00;0.00;;;;;;;6.45;78.84;98494.03;4994224;28;20268;-48
2022/04/09 10:18:21;;;;;;;0.00;0.00;;;;;;;6.46;76.86;98499.13;4994447;28;20290;-49
2022/04/09 10:20:51;;;;;;;0.00;0.00;;;;;;;6.54;79.71;98508.84;4994525;28;20253;-48
2022/04/09 10:23:19;;;;;;;0.03;0.03;;;;;;;6.32;79.17;98504.63;4994723;28;20248;-51
2022/04/09 10:25:48;;;;;;;0.00;0.00;;;;;;;6.35;79.74;98502.63;4994060;28;20202;-49
2022/04/09 10:28:30;;;;;;;0.00;0.00;;;;;;;6.25;81.47;98514.69;4995172;28;20213;-50
2022/04/09 10:30:57;;;;;;;0.00;0.00;;;;;;;6.14;79.93;98517.34;5013733;28;20196;-50
2022/04/09 10:33:28;;;;;;;0.00;0.00;;;;;;;6.26;79.11;98508.56;5013794;28;20193;-48
2022/04/09 10:36:00;;;;;;;0.00;0.00;;;;;;;6.31;79.62;98514.19;5013421;28;20276;-51
2022/04/09 10:38:28;;;;;;;0.00;0.00;;;;;;;6.17;80.89;98517.88;5013538;28;20207;-49
2022/04/09 10:41:27;;;;;;;0.00;0.00;;;;;;;6.70;78.50;98515.34;5013573;28;20185;-48
2022/04/09 10:43:57;;;;;;;0.00;0.00;;;;;;;6.97;77.92;98517.38;5013481;28;20217;-48
2022/04/09 10:46:36;;;;;;;0.00;0.00;;;;;;;7.41;77.87;98516.28;5013746;28;20197;-51
2022/04/09 10:49:21;;;;;;;0.00;0.00;;;;;;;7.67;75.44;98514.84;5013542;28;20693;-51
2022/04/09 10:52:03;;;;;;;0.00;0.00;;;;;;;7.46;75.74;98517.53;5013774;28;20220;-48
2022/04/09 10:54:30;;;;;;;0.00;0.00;;;;;;;7.16;74.97;98518.41;5013158;28;20178;-49
2022/04/09 10:57:06;;;;;;;0.00;0.00;;;;;;;6.70;75.67;98518.78;5013261;28;20192;-48
2022/04/09 10:59:34;;;;;;;0.00;0.00;;;;;;;6.36;79.64;98526.75;5000158;28;20831;-50
2022/04/09 11:02:02;;;;;;;0.00;0.00;;;;;;;6.85;76.88;98523.63;4993589;28;20190;-50
2022/04/09 11:04:44;;;;;;;0.00;0.00;;;;;;;6.88;78.36;98519.00;4993377;28;20189;-48
2022/04/09 11:07:14;;;;;;;0.00;0.00;;;;;;;7.25;77.09;98520.22;4993692;28;20210;-48
2022/04/09 11:09:48;;;;;;;0.00;0.00;;;;;;;7.52;75.44;98516.19;4993600;28;20670;-48
2022/04/09 11:12:18;;;;;;;0.00;0.00;;;;;;;7.66;74.36;98507.16;4995139;28;20213;-48
2022/04/09 11:14:48;;;;;;;0.00;0.00;;;;;;;7.72;72.07;98518.81;5008823;28;20213;-49
2022/04/09 11:17:20;;;;;;;0.00;0.00;;;;;;;7.56;73.06;98508.94;5004519;28;20190;-49
2022/04/09 11:19:49;;;;;;;0.00;0.00;;;;;;;6.91;76.18;98505.75;5012453;28;20184;-49
2022/04/09 11:22:16;;;;;;;0.00;0.00;;;;;;;7.12;75.13;98504.03;5013349;28;20189;-48
2022/04/09 11:24:43;;;;;;;0.00;0.00;;;;;;;7.11;77.62;98505.84;5012800;28;20212;-48
2022/04/09 11:27:11;;;;;;;0.00;0.00;;;;;;;7.45;78.05;98496.88;5012915;28;20192;-50
2022/04/09 11:29:40;;;;;;;0.00;0.00;;;;;;;7.54;75.60;98504.69;5012544;28;20198;-48
2022/04/09 11:32:08;;;;;;;0.00;0.00;;;;;;;8.34;72.68;98501.16;5012845;28;20198;-47
2022/04/09 11:34:52;;;;;;;0.00;0.00;;;;;;;8.69;70.41;98502.31;5012328;28;20189;-48
2022/04/09 11:37:19;;;;;;;0.00;0.00;;;;;;;8.32;69.72;98499.63;5012862;28;20187;-47
2022/04/09 11:39:48;;;;;;;0.00;0.00;;;;;;;9.07;67.60;98501.50;5010800;28;20197;-48
2022/04/09 11:42:15;;;;;;;0.00;0.00;;;;;;;8.98;61.76;98498.78;5012033;28;20189;-48
2022/04/09 11:44:42;;;;;;;0.00;0.00;;;;;;;8.62;65.78;98501.22;5011886;28;20194;-48
2022/04/09 11:47:11;;;;;;;0.00;0.00;;;;;;;7.83;68.36;98495.31;5012442;28;20680;-48
2022/04/09 11:49:38;;;;;;;0.00;0.00;;;;;;;7.73;67.52;98497.88;5012384;28;20182;-48